.
WxDataArchive / Data Records for 2008-11-17
2008-11-16 November 2008 2008-11-18

Data Records for Monday, 17 November 2008

Time	Temp	Chill	HIndex	Humid	Dewpt	 Wind 	HiWind	WindDir	Rain 	Barom 
-----	----	-----	------	-----	-----	------	------	-------	-----	----- 
00:00	33.8	33.8	33.8	81	28.6	0	1	248	0.00	29.987 
00:05	33.8	33.8	33.8	81	28.6	0	1	248	0.00	29.987 
00:10	33.8	33.8	33.8	81	28.6	0	3	248	0.00	29.987 
00:15	33.8	33.8	33.8	81	28.6	0	3	248	0.00	29.986 
00:20	33.8	33.8	33.8	81	28.6	0	3	248	0.00	29.986 
00:25	33.8	33.8	33.8	82	28.9	0	4	248	0.00	29.987 
00:30	33.8	33.8	33.8	82	28.9	0	3	248	0.00	29.987 
00:35	33.8	33.8	33.8	82	28.9	0	2	248	0.00	29.987 
00:40	33.8	33.8	33.8	82	28.9	0	2	248	0.00	29.987 
00:45	33.8	33.8	33.8	83	29.2	0	1	248	0.00	29.987 
00:50	33.7	33.7	33.7	83	29.1	1	5	248	0.00	29.987 
00:55	33.7	33.7	33.7	84	29.4	0	1	248	0.00	29.986 
01:00	33.7	33.7	33.7	84	29.4	0	2	248	0.00	29.987 
01:05	33.7	33.7	33.7	84	29.4	0	0	---	0.00	29.985 
01:10	33.7	33.7	33.7	84	29.4	0	1	248	0.00	29.984 
01:15	33.7	33.7	33.7	84	29.4	0	2	248	0.00	29.984 
01:20	33.7	33.7	33.7	84	29.4	0	1	248	0.00	29.984 
01:25	33.7	33.7	33.7	84	29.4	0	1	248	0.00	29.984 
01:30	33.5	33.5	33.5	85	29.5	0	1	338	0.00	29.984 
01:35	33.5	33.5	33.5	85	29.5	0	1	338	0.00	29.984 
01:40	33.5	33.5	33.5	85	29.5	0	1	338	0.00	29.984 
01:45	33.5	33.5	33.5	85	29.5	0	1	338	0.00	29.985 
01:50	33.5	33.5	33.5	85	29.5	0	1	338	0.00	29.985 
01:55	33.4	33.4	33.4	86	29.7	0	0	---	0.00	29.988 
02:00	33.5	33.5	33.5	86	29.8	0	1	338	0.00	29.987 
02:05	33.5	33.5	33.5	86	29.8	0	1	338	0.00	29.987 
02:10	33.5	33.5	33.5	86	29.8	0	1	338	0.00	29.989 
02:15	33.5	33.5	33.5	86	29.8	0	1	338	0.00	29.993 
02:20	33.5	33.5	33.5	86	29.8	0	0	---	0.00	29.993 
02:25	33.5	33.5	33.5	87	30.1	0	0	---	0.00	29.995 
02:30	33.5	33.5	33.5	87	30.1	0	0	---	0.00	29.999 
02:35	33.5	33.5	33.5	87	30.1	0	0	---	0.00	30.000 
02:40	33.5	33.5	33.5	87	30.1	0	0	---	0.00	30.000 
02:45	33.5	33.5	33.5	88	30.3	0	1	338	0.00	30.001 
02:50	33.5	33.5	33.5	88	30.3	0	1	338	0.00	30.002 
02:55	33.5	33.5	33.5	88	30.3	0	1	338	0.00	30.004 
03:00	33.5	33.5	33.5	88	30.3	0	0	---	0.00	30.006 
03:05	33.4	33.4	33.4	88	30.2	0	1	338	0.00	30.010 
03:10	33.4	33.4	33.4	88	30.2	0	1	338	0.00	30.012 
03:15	33.4	33.4	33.4	88	30.2	0	0	---	0.00	30.013 
03:20	33.2	33.2	33.2	88	30.0	0	0	---	0.00	30.013 
03:25	33.2	33.2	33.2	88	30.0	0	0	---	0.00	30.013 
03:30	33.2	33.2	33.2	89	30.3	0	0	---	0.00	30.014 
03:35	33.1	33.1	33.1	89	30.2	0	0	---	0.00	30.016 
03:40	33.1	33.1	33.1	89	30.2	0	1	338	0.00	30.017 
03:45	33.1	33.1	33.1	89	30.2	0	0	---	0.00	30.017 
03:50	32.9	32.9	32.9	89	30.0	0	0	---	0.00	30.017 
03:55	32.8	32.8	32.8	89	29.9	0	0	---	0.00	30.018 
04:00	32.8	32.8	32.8	90	30.2	0	0	---	0.00	30.018 
04:05	32.8	32.8	32.8	90	30.2	0	0	---	0.00	30.018 
04:10	32.8	32.8	32.8	90	30.2	0	0	---	0.00	30.021 
04:15	32.8	32.8	32.8	90	30.2	0	0	---	0.00	30.020 
04:20	32.7	32.7	32.7	90	30.1	0	0	---	0.00	30.021 
04:25	32.7	32.7	32.7	90	30.1	0	0	---	0.00	30.025 
04:30	32.7	32.7	32.7	90	30.1	0	1	338	0.00	30.027 
04:35	32.7	32.7	32.7	90	30.1	0	0	---	0.00	30.030 
04:40	32.8	32.8	32.8	90	30.2	0	1	338	0.00	30.032 
04:45	32.8	32.8	32.8	90	30.2	0	0	---	0.00	30.032 
04:50	32.8	32.8	32.8	90	30.2	0	0	---	0.00	30.033 
04:55	32.9	32.9	32.9	90	30.3	0	0	---	0.00	30.034 
05:00	32.8	32.8	32.8	90	30.2	0	1	338	0.00	30.034 
05:05	32.8	32.8	32.8	90	30.2	0	2	338	0.00	30.037 
05:10	32.8	32.8	32.8	90	30.2	0	1	338	0.00	30.039 
05:15	32.8	32.8	32.8	90	30.2	0	1	338	0.00	30.039 
05:20	32.8	32.8	32.8	90	30.2	0	1	338	0.00	30.040 
05:25	32.7	32.7	32.7	90	30.1	0	0	---	0.00	30.042 
05:30	32.7	32.7	32.7	90	30.1	0	1	338	0.00	30.045 
05:35	32.7	32.7	32.7	91	30.4	0	2	338	0.00	30.047 
05:40	32.7	32.7	32.7	91	30.4	0	1	338	0.00	30.049 
05:45	32.7	32.7	32.7	91	30.4	0	0	---	0.00	30.051 
05:50	32.7	32.7	32.7	91	30.4	0	1	338	0.00	30.050 
05:55	32.7	32.7	32.7	91	30.4	0	1	338	0.00	30.051 
06:00	32.7	32.7	32.7	91	30.4	0	0	---	0.00	30.052 
06:05	32.7	32.7	32.7	91	30.4	0	1	338	0.00	30.053 
06:10	32.7	32.7	32.7	91	30.4	0	0	---	0.00	30.053 
06:15	32.7	32.7	32.7	91	30.4	0	0	---	0.00	30.054 
06:20	32.7	32.7	32.7	91	30.4	0	1	338	0.00	30.054 
06:25	32.7	32.7	32.7	91	30.4	0	1	338	0.00	30.056 
06:30	32.7	32.7	32.7	91	30.4	0	0	---	0.00	30.057 
06:35	32.7	32.7	32.7	91	30.4	0	1	338	0.00	30.059 
06:40	32.7	32.7	32.7	91	30.4	0	1	338	0.00	30.062 
06:45	32.7	32.7	32.7	91	30.4	0	1	338	0.00	30.063 
06:50	32.7	32.7	32.7	91	30.4	0	1	338	0.00	30.066 
06:55	32.7	32.7	32.7	91	30.4	0	1	338	0.00	30.067 
07:00	32.7	32.7	32.7	91	30.4	0	1	338	0.00	30.068 
07:05	32.7	32.7	32.7	91	30.4	0	1	338	0.00	30.070 
07:10	32.7	32.7	32.7	91	30.4	0	1	338	0.00	30.071 
07:15	32.7	32.7	32.7	91	30.4	0	1	338	0.00	30.073 
07:20	32.7	32.7	32.7	91	30.4	0	1	338	0.00	30.077 
07:25	32.7	32.7	32.7	91	30.4	0	1	338	0.00	30.078 
07:30	32.7	32.7	32.7	91	30.4	0	1	338	0.00	30.080 
07:35	32.7	32.7	32.7	91	30.4	0	1	338	0.00	30.081 
07:40	32.7	32.7	32.7	91	30.4	0	1	338	0.00	30.082 
07:45	32.7	32.7	32.7	91	30.4	0	1	338	0.00	30.082 
07:50	32.7	32.7	32.7	91	30.4	0	1	338	0.00	30.083 
07:55	32.7	32.7	32.7	90	30.1	0	2	248	0.00	30.084 
08:00	32.8	32.8	32.8	90	30.2	0	1	248	0.00	30.084 
08:05	32.8	32.8	32.8	90	30.2	0	2	248	0.00	30.086 
08:10	32.9	32.9	32.9	90	30.3	0	1	248	0.00	30.087 
08:15	33.1	33.1	33.1	90	30.5	1	3	248	0.00	30.089 
08:20	33.1	33.1	33.1	90	30.5	0	2	248	0.00	30.091 
08:25	33.1	33.1	33.1	89	30.2	0	2	248	0.00	30.094 
08:30	33.1	33.1	33.1	89	30.2	1	3	248	0.00	30.094 
08:35	33.1	33.1	33.1	89	30.2	1	3	248	0.00	30.096 
08:40	33.1	33.1	33.1	89	30.2	1	4	248	0.00	30.096 
08:45	33.2	33.2	33.2	88	30.0	0	4	338	0.00	30.097 
08:50	33.2	33.2	33.2	88	30.0	0	2	338	0.00	30.098 
08:55	33.4	33.4	33.4	88	30.2	1	3	292	0.00	30.099 
09:00	33.2	33.2	33.2	87	29.8	2	5	292	0.00	30.100 
09:05	33.1	33.1	33.1	85	29.1	2	4	315	0.00	30.101 
09:10	32.9	32.9	32.9	85	28.9	1	5	338	0.00	30.103 
09:15	32.9	32.9	32.9	85	28.9	1	3	338	0.00	30.110 
09:20	32.9	32.9	32.9	85	28.9	1	3	315	0.00	30.112 
09:25	32.9	32.9	32.9	85	28.9	1	7	315	0.00	30.115 
09:30	32.8	32.8	32.8	84	28.5	1	4	338	0.00	30.115 
09:35	32.8	32.8	32.8	84	28.5	1	3	315	0.00	30.117 
09:40	32.9	32.9	32.9	84	28.6	1	4	338	0.00	30.119 
09:45	32.8	32.8	32.8	81	27.6	1	6	315	0.00	30.122 
09:50	32.8	32.8	32.8	81	27.6	1	3	315	0.00	30.124 
09:55	32.8	32.8	32.8	81	27.6	1	4	315	0.00	30.128 
10:00	32.8	32.8	32.8	79	27.0	2	5	315	0.00	30.131 
10:05	32.8	32.8	32.8	78	26.7	1	4	292	0.00	30.131 
10:10	32.9	32.9	32.9	76	26.2	1	4	315	0.00	30.132 
10:15	32.9	32.9	32.9	74	25.5	2	6	338	0.00	30.134 
10:20	32.9	32.9	32.9	73	25.2	2	7	338	0.00	30.136 
10:25	33.1	33.1	33.1	73	25.4	1	4	270	0.00	30.138 
10:30	33.2	33.2	33.2	73	25.5	1	2	270	0.00	30.143 
10:35	33.4	33.4	33.4	73	25.7	1	4	292	0.00	30.145 
10:40	33.4	33.4	33.4	73	25.7	1	5	338	0.00	30.146 
10:45	33.5	33.5	33.5	73	25.8	1	6	315	0.00	30.145 
10:50	33.7	33.7	33.7	74	26.3	1	2	315	0.00	30.145 
10:55	33.7	33.7	33.7	71	25.3	1	4	315	0.00	30.146 
11:00	33.8	33.8	33.8	69	24.7	1	3	0	0.00	30.146 
11:05	34.1	34.1	34.1	68	24.7	1	3	338	0.00	30.147 
11:10	34.3	34.3	34.3	67	24.5	1	5	315	0.00	30.148 
11:15	34.3	34.3	34.3	67	24.5	1	4	270	0.00	30.147 
11:20	34.1	34.1	34.1	64	23.2	1	3	338	0.00	30.147 
11:25	34.3	34.3	34.3	65	23.8	1	3	270	0.00	30.146 
11:30	34.4	34.4	34.4	65	23.9	1	3	292	0.00	30.146 
11:35	34.7	34.7	34.7	63	23.4	1	4	315	0.00	30.146 
11:40	34.7	34.7	34.7	63	23.4	1	3	338	0.00	30.146 
11:45	34.9	34.9	34.9	65	24.3	1	5	22	0.00	30.144 
11:50	35.0	35.0	35.0	61	22.9	1	4	338	0.00	30.143 
11:55	35.0	35.0	35.0	62	23.3	1	3	315	0.00	30.143 
12:00	34.7	34.7	34.7	62	23.0	1	3	0	0.00	30.143 
12:05	34.7	34.7	34.7	63	23.4	1	4	338	0.00	30.143 
12:10	34.4	34.4	34.4	62	22.7	2	5	270	0.00	30.142 
12:15	34.3	34.3	34.3	63	23.0	1	3	315	0.00	30.141 
12:20	34.3	34.3	34.3	62	22.7	1	3	338	0.00	30.140 
12:25	34.4	34.4	34.4	62	22.7	1	4	315	0.00	30.138 
12:30	34.3	34.3	34.3	63	23.0	2	5	270	0.00	30.137 
12:35	34.3	34.3	34.3	63	23.0	1	4	0	0.00	30.137 
12:40	34.3	34.3	34.3	65	23.8	1	4	338	0.00	30.136 
12:45	34.3	34.3	34.3	65	23.8	1	4	338	0.00	30.134 
12:50	34.3	34.3	34.3	64	23.4	1	3	315	0.00	30.134 
12:55	34.4	34.4	34.4	65	23.9	1	2	315	0.00	30.132 
13:00	34.4	34.4	34.4	65	23.9	1	3	315	0.00	30.132 
13:05	34.4	34.4	34.4	64	23.5	1	4	338	0.00	30.131 
13:10	34.4	34.4	34.4	66	24.2	1	3	338	0.00	30.130 
13:15	34.6	34.6	34.6	65	24.1	1	4	270	0.00	30.132 
13:20	34.7	34.7	34.7	65	24.2	1	3	270	0.00	30.134 
13:25	34.4	34.4	34.4	65	23.9	2	4	248	0.00	30.134 
13:30	34.1	34.1	34.1	66	23.9	1	3	315	0.00	30.134 
13:35	34.0	34.0	34.0	66	23.9	1	4	292	0.00	30.136 
13:40	33.8	33.8	33.8	69	24.7	1	2	292	0.00	30.137 
13:45	33.4	33.4	33.4	70	24.7	1	3	315	0.00	30.141 
13:50	33.2	33.2	33.2	73	25.5	1	3	292	0.00	30.142 
13:55	32.9	32.9	32.9	76	26.2	1	3	248	0.00	30.144 
14:00	32.7	32.7	32.7	77	26.3	1	4	338	0.00	30.143 
14:05	32.5	32.5	32.5	79	26.7	1	3	248	0.00	30.144 
14:10	32.4	32.4	32.4	78	26.3	1	3	338	0.00	30.144 
14:15	32.4	32.4	32.4	79	26.6	1	4	338	0.00	30.145 
14:20	32.4	32.4	32.4	80	26.9	1	3	292	0.00	30.145 
14:25	32.4	32.4	32.4	80	26.9	1	3	315	0.00	30.145 
14:30	32.4	32.4	32.4	81	27.2	1	2	338	0.00	30.145 
14:35	32.4	32.4	32.4	82	27.5	0	2	338	0.00	30.144 
14:40	32.4	32.4	32.4	82	27.5	1	3	248	0.00	30.143 
14:45	32.5	32.5	32.5	82	27.6	1	3	248	0.00	30.142 
14:50	32.8	32.8	32.8	81	27.6	1	4	338	0.00	30.143 
14:55	32.8	32.8	32.8	80	27.3	1	2	225	0.00	30.144 
15:00	32.8	32.8	32.8	81	27.6	1	2	225	0.00	30.145 
15:05	32.8	32.8	32.8	81	27.6	1	6	248	0.00	30.145 
15:10	32.7	32.7	32.7	81	27.5	2	6	248	0.00	30.146 
15:15	32.5	32.5	32.5	81	27.3	2	7	270	0.00	30.147 
15:20	32.2	28.3	32.2	80	26.7	4	6	270	0.00	30.149 
15:25	32.2	32.2	32.2	80	26.7	3	7	270	0.00	30.151 
15:30	31.6	31.6	31.6	81	26.5	3	9	270	0.00	30.155 
15:35	31.3	31.3	31.3	81	26.2	2	5	315	0.00	30.153 
15:40	31.3	31.3	31.3	81	26.2	2	5	315	0.00	30.155 
15:45	31.6	31.6	31.6	80	26.2	3	10	270	0.00	30.156 
15:50	31.6	31.6	31.6	79	25.8	3	7	270	0.00	30.157 
15:55	31.6	31.6	31.6	79	25.8	2	7	270	0.00	30.162 
16:00	31.3	31.3	31.3	81	26.2	2	6	270	0.00	30.161 
16:05	31.0	31.0	31.0	81	25.9	2	5	270	0.00	30.163 
16:10	30.7	30.7	30.7	82	25.9	2	5	292	0.00	30.164 
16:15	30.6	30.6	30.6	84	26.4	1	4	270	0.00	30.164 
16:20	30.6	30.6	30.6	84	26.4	2	7	270	0.00	30.166 
16:25	30.7	30.7	30.7	83	26.2	3	10	270	0.00	30.165 
16:30	31.0	31.0	31.0	82	26.2	2	6	270	0.00	30.165 
16:35	31.0	31.0	31.0	81	25.9	3	6	270	0.00	30.165 
16:40	31.0	31.0	31.0	81	25.9	2	5	270	0.00	30.166 
16:45	30.9	30.9	30.9	81	25.8	2	5	270	0.00	30.167 
16:50	31.0	31.0	31.0	81	25.9	1	5	270	0.00	30.168 
16:55	31.0	31.0	31.0	81	25.9	1	4	270	0.00	30.170 
17:00	31.0	31.0	31.0	81	25.9	1	4	315	0.00	30.170 
17:05	31.0	31.0	31.0	80	25.6	2	5	270	0.00	30.169 
17:10	31.2	31.2	31.2	79	25.5	2	9	270	0.01	30.172 
17:15	31.2	31.2	31.2	79	25.5	1	3	248	0.00	30.177 
17:20	31.3	31.3	31.3	79	25.6	0	3	315	0.00	30.178 
17:25	30.9	30.9	30.9	81	25.8	1	3	338	0.00	30.179 
17:30	30.4	30.4	30.4	84	26.2	1	3	338	0.00	30.182 
17:35	30.1	30.1	30.1	85	26.1	0	3	338	0.00	30.183 
17:40	30.1	30.1	30.1	86	26.4	0	2	338	0.00	30.182 
17:45	30.1	30.1	30.1	87	26.7	0	3	270	0.00	30.183 
17:50	30.1	30.1	30.1	86	26.4	2	8	270	0.00	30.185 
17:55	30.0	30.0	30.0	86	26.3	1	4	248	0.00	30.187 
18:00	30.0	30.0	30.0	85	26.0	1	4	270	0.00	30.191 
18:05	30.0	30.0	30.0	85	26.0	1	6	248	0.00	30.194 
18:10	30.0	30.0	30.0	85	26.0	1	4	270	0.00	30.195 
18:15	30.0	30.0	30.0	85	26.0	1	4	248	0.00	30.197 
18:20	30.0	30.0	30.0	84	25.8	1	3	248	0.00	30.197 
18:25	30.1	30.1	30.1	84	25.9	1	4	338	0.00	30.198 
18:30	30.1	30.1	30.1	84	25.9	1	5	270	0.00	30.199 
18:35	30.3	30.3	30.3	82	25.5	1	4	315	0.00	30.202 
18:40	30.1	30.1	30.1	83	25.6	1	5	315	0.00	30.206 
18:45	29.7	29.7	29.7	84	25.5	2	4	338	0.00	30.208 
18:50	29.5	29.5	29.5	85	25.6	1	4	270	0.00	30.210 
18:55	29.5	29.5	29.5	85	25.6	1	5	270	0.00	30.212 
19:00	29.5	29.5	29.5	84	25.3	1	3	292	0.00	30.212 
19:05	29.7	29.7	29.7	83	25.2	2	6	292	0.00	30.213 
19:10	29.7	29.7	29.7	83	25.2	1	3	0	0.00	30.216 
19:15	29.5	29.5	29.5	82	24.7	2	5	338	0.00	30.218 
19:20	29.5	29.5	29.5	82	24.7	1	2	338	0.00	30.220 
19:25	29.4	29.4	29.4	83	24.9	2	6	338	0.00	30.223 
19:30	29.3	29.3	29.3	84	25.1	2	7	315	0.00	30.224 
19:35	29.1	29.1	29.1	85	25.2	0	2	338	0.00	30.226 
19:40	29.1	29.1	29.1	85	25.2	1	5	338	0.00	30.225 
19:45	29.1	29.1	29.1	85	25.2	1	3	315	0.00	30.228 
19:50	29.0	29.0	29.0	85	25.1	1	4	315	0.00	30.229 
19:55	29.0	29.0	29.0	85	25.1	1	3	270	0.00	30.229 
20:00	28.8	28.8	28.8	85	24.9	1	4	270	0.00	30.228 
20:05	28.7	28.7	28.7	83	24.2	1	5	292	0.00	30.228 
20:10	28.7	28.7	28.7	81	23.6	1	4	315	0.00	30.228 
20:15	28.7	28.7	28.7	81	23.6	1	3	292	0.00	30.229 
20:20	28.7	28.7	28.7	80	23.3	1	4	292	0.00	30.229 
20:25	28.7	28.7	28.7	79	23.0	1	3	0	0.00	30.229 
20:30	28.7	28.7	28.7	78	22.7	1	5	315	0.00	30.229 
20:35	28.7	28.7	28.7	78	22.7	1	5	315	0.00	30.229 
20:40	28.7	28.7	28.7	78	22.7	1	3	292	0.00	30.230 
20:45	28.5	28.5	28.5	78	22.5	1	3	338	0.00	30.230 
20:50	28.4	28.4	28.4	78	22.4	0	2	338	0.00	30.231 
20:55	28.4	28.4	28.4	78	22.4	1	5	270	0.00	30.234 
21:00	28.2	28.2	28.2	79	22.5	0	2	270	0.00	30.234 
21:05	28.1	28.1	28.1	79	22.4	0	2	0	0.00	30.232 
21:10	28.1	28.1	28.1	79	22.4	0	3	0	0.00	30.233 
21:15	27.9	27.9	27.9	80	22.5	0	1	270	0.00	30.233 
21:20	27.9	27.9	27.9	80	22.5	0	2	315	0.00	30.234 
21:25	27.9	27.9	27.9	80	22.5	1	2	315	0.00	30.238 
21:30	27.9	27.9	27.9	81	22.8	0	3	0	0.00	30.239 
21:35	27.9	27.9	27.9	81	22.8	0	3	0	0.00	30.235 
21:40	27.9	27.9	27.9	82	23.1	0	3	0	0.00	30.235 
21:45	27.9	27.9	27.9	82	23.1	0	1	338	0.00	30.238 
21:50	27.9	27.9	27.9	83	23.4	0	1	338	0.00	30.241 
21:55	27.9	27.9	27.9	83	23.4	0	1	338	0.00	30.241 
22:00	27.8	27.8	27.8	83	23.3	1	2	248	0.00	30.242 
22:05	27.8	27.8	27.8	83	23.3	1	2	315	0.00	30.239 
22:10	27.6	27.6	27.6	83	23.1	0	2	270	0.00	30.238 
22:15	27.6	27.6	27.6	83	23.1	1	3	270	0.00	30.241 
22:20	27.5	27.5	27.5	83	23.0	1	4	248	0.00	30.239 
22:25	27.5	27.5	27.5	83	23.0	1	3	270	0.00	30.236 
22:30	27.3	27.3	27.3	83	22.8	1	2	248	0.00	30.241 
22:35	27.3	27.3	27.3	83	22.8	1	3	248	0.00	30.239 
22:40	27.3	27.3	27.3	83	22.8	1	2	292	0.00	30.237 
22:45	27.3	27.3	27.3	82	22.5	1	3	270	0.00	30.237 
22:50	27.2	27.2	27.2	82	22.4	1	3	248	0.00	30.235 
22:55	27.2	27.2	27.2	82	22.4	1	2	248	0.00	30.234 
23:00	27.0	27.0	27.0	83	22.5	1	2	248	0.00	30.233 
23:05	26.9	26.9	26.9	83	22.4	1	3	248	0.00	30.230 
23:10	26.7	26.7	26.7	83	22.2	1	3	248	0.00	30.231 
23:15	26.7	26.7	26.7	83	22.2	1	3	248	0.00	30.232 
23:20	26.6	26.6	26.6	83	22.1	1	3	248	0.00	30.232 
23:25	26.6	26.6	26.6	83	22.1	0	2	248	0.00	30.234 
23:30	26.6	26.6	26.6	83	22.1	1	3	248	0.00	30.237 
23:35	26.4	26.4	26.4	83	22.0	0	2	270	0.00	30.236 
23:40	26.4	26.4	26.4	83	22.0	1	3	270	0.00	30.239 
23:45	26.4	26.4	26.4	83	22.0	0	1	270	0.00	30.242 
23:50	26.4	26.4	26.4	83	22.0	0	2	292	0.00	30.243 
23:55	26.3	26.3	26.3	83	21.9	0	2	315	0.00	30.243 

CoCoRaHS
IN-AL-39
A2 Web Hosting
Creative Commons License
GoDaddy
Look for:

loaded 2017-10-18 07:08:12 • last modified 2010-11-18 10:43:29
Privacy PolicyDisclaimer
• wx.awcolley.com is powered by PmWiki v.2002016 •
• all content (unless otherwise noted) © 2017 A W Colley